Moon Township, Pennsylvania
Current Conditions -  °F | °C
As of 3:51 PM on Sunday 23 Nov 2014 (Local Time) from KPIT Reporting Station
Overcast Overcast  
Wind Chill: 62°   Ceiling: 22000
Heat Index: 62°   Visibility: 10mi
Dew Point: 46°   Wind: 10mph
Humidity: 56%   Direction: 120°ESE
Pressure: 29.84"   Gusts: NA
Location:  40.5042°N, 80.1934°W
Report Text: KPIT 232051Z 12009KT 10SM FEW043 SCT130 OVC220 17/08 A2984 RMK AO2 SLP113 T01670078 58039
Loading
Personal Weather Stations






























Interactive Weather Map New forecast layout! Learn more

10-Day Weather Forecast

Advertisements
Track Severe Weather on mobile